createdAt,value
2022-08-29T00:00:18.525Z,99986.50
2022-08-29T00:02:56.464Z,99982.81
2022-08-29T00:05:28.336Z,99970.34
2022-08-29T00:07:56.652Z,99976.66
2022-08-29T00:10:23.157Z,99977.72
2022-08-29T00:12:49.694Z,99973.59
2022-08-29T00:15:16.600Z,99986.56
2022-08-29T00:17:43.452Z,99979.03
2022-08-29T00:20:14.671Z,99977.88
2022-08-29T00:22:41.101Z,99976.66
2022-08-29T00:25:08.761Z,99978.09
2022-08-29T00:27:35.210Z,99979.94
2022-08-29T00:30:02.355Z,99981.47
2022-08-29T00:32:34.868Z,99984.28
2022-08-29T00:35:04.877Z,99991.53
2022-08-29T00:37:31.782Z,99986.88
2022-08-29T00:39:58.597Z,99980.91
2022-08-29T00:42:25.192Z,99991.00
2022-08-29T00:44:51.901Z,99985.78
2022-08-29T00:47:22.980Z,99983.13
2022-08-29T00:49:51.717Z,99985.13
2022-08-29T00:52:26.509Z,99988.47
2022-08-29T00:54:54.468Z,99994.47
2022-08-29T00:57:23.297Z,99994.09
2022-08-29T00:59:51.562Z,99985.56
2022-08-29T01:02:18.375Z,99992.03
2022-08-29T01:04:45.604Z,99994.19
2022-08-29T01:07:12.656Z,99994.94
2022-08-29T01:09:41.422Z,99996.53
2022-08-29T01:12:17.039Z,99981.59
2022-08-29T01:14:48.760Z,99992.44
2022-08-29T01:17:20.844Z,99996.03
2022-08-29T01:19:52.772Z,100003.38
2022-08-29T01:22:33.701Z,100006.34
2022-08-29T01:25:02.833Z,99999.25
2022-08-29T01:27:31.422Z,99993.63
2022-08-29T01:29:57.860Z,99995.00
2022-08-29T01:32:25.562Z,99997.59
2022-08-29T01:34:53.050Z,99997.06
2022-08-29T01:37:20.633Z,100000.72
2022-08-29T01:39:47.028Z,100010.03
2022-08-29T01:42:18.373Z,100010.75
2022-08-29T01:44:57.996Z,100005.50
2022-08-29T01:47:27.692Z,100008.94
2022-08-29T01:49:54.154Z,100007.81
2022-08-29T01:52:20.796Z,100008.56
2022-08-29T01:54:48.084Z,100001.69
2022-08-29T01:57:16.877Z,100002.72
2022-08-29T01:59:43.785Z,99998.94
2022-08-29T02:02:16.593Z,100010.06
2022-08-29T02:04:45.284Z,100014.50
2022-08-29T02:07:12.863Z,100014.13
2022-08-29T02:09:40.275Z,100009.59
2022-08-29T02:12:13.673Z,100018.41
2022-08-29T02:14:40.738Z,100022.47
2022-08-29T02:17:07.781Z,100020.25
2022-08-29T02:19:34.873Z,100026.97
2022-08-29T02:22:02.563Z,100025.00
2022-08-29T02:24:30.234Z,100038.13
2022-08-29T02:26:57.880Z,100028.66
2022-08-29T02:29:25.885Z,100037.19
2022-08-29T02:31:57.322Z,100037.84
2022-08-29T02:34:23.767Z,100029.44
2022-08-29T02:36:50.450Z,100024.13
2022-08-29T02:39:18.124Z,100019.66
2022-08-29T02:41:44.789Z,100022.31
2022-08-29T02:44:11.421Z,100017.66
2022-08-29T02:46:38.023Z,100017.28
2022-08-29T02:49:04.478Z,100025.28
2022-08-29T02:51:33.751Z,100017.41
2022-08-29T02:54:01.362Z,100011.78
2022-08-29T02:56:29.831Z,100023.00
2022-08-29T02:58:56.504Z,100026.88
2022-08-29T03:01:24.373Z,100023.41
2022-08-29T03:03:52.469Z,100020.50
2022-08-29T03:06:20.250Z,100027.38
2022-08-29T03:08:46.653Z,100026.78
2022-08-29T03:11:13.982Z,100032.50
2022-08-29T03:13:40.507Z,100028.84
2022-08-29T03:16:08.511Z,100023.13
2022-08-29T03:18:35.137Z,100020.75
2022-08-29T03:21:01.844Z,100025.16
2022-08-29T03:23:28.508Z,100029.84
2022-08-29T03:25:55.497Z,100023.44
2022-08-29T03:28:21.976Z,100023.97
2022-08-29T03:30:48.368Z,100027.00
2022-08-29T03:33:14.882Z,100024.88
2022-08-29T03:35:42.356Z,100014.53
2022-08-29T03:38:09.018Z,100014.25
2022-08-29T03:40:35.748Z,100019.28
2022-08-29T03:43:03.303Z,100024.63
2022-08-29T03:45:29.752Z,100025.19
2022-08-29T03:47:56.147Z,100032.47
2022-08-29T03:50:24.314Z,100033.91
2022-08-29T03:52:51.422Z,100032.19
2022-08-29T03:55:20.748Z,100030.78
2022-08-29T03:57:47.592Z,100033.88
2022-08-29T04:00:16.857Z,100024.47
2022-08-29T04:02:45.576Z,100032.22
2022-08-29T04:05:13.011Z,100001.69
2022-08-29T04:07:42.570Z,100024.03
2022-08-29T04:10:10.375Z,100029.50
2022-08-29T04:12:37.231Z,100029.66
2022-08-29T04:15:05.820Z,100024.97
2022-08-29T04:17:33.296Z,100032.41
2022-08-29T04:19:59.840Z,100037.38
2022-08-29T04:22:26.802Z,100041.44
2022-08-29T04:24:53.233Z,100024.50
2022-08-29T04:27:19.769Z,100025.31
2022-08-29T04:29:48.315Z,100025.22
2022-08-29T04:32:17.841Z,100020.13
2022-08-29T04:34:44.266Z,100033.28
2022-08-29T04:37:10.718Z,100030.06
2022-08-29T04:39:37.871Z,100038.34
2022-08-29T04:42:04.370Z,100041.44
2022-08-29T04:44:30.755Z,100027.19
2022-08-29T04:46:57.226Z,100032.38
2022-08-29T04:49:23.936Z,100034.00
2022-08-29T04:51:52.462Z,100031.91
2022-08-29T04:54:18.843Z,100036.13
2022-08-29T04:56:47.115Z,100037.88
2022-08-29T04:59:15.725Z,100042.53
2022-08-29T05:01:42.781Z,100043.91
2022-08-29T05:04:14.216Z,100047.25
2022-08-29T05:06:41.233Z,100055.91
2022-08-29T05:09:07.716Z,100057.34
2022-08-29T05:11:34.360Z,100059.03
2022-08-29T05:14:02.400Z,100052.47
2022-08-29T05:16:30.700Z,100062.34
2022-08-29T05:18:58.643Z,100072.69
2022-08-29T05:21:35.060Z,100065.84
2022-08-29T05:24:03.345Z,100084.28
2022-08-29T05:26:32.459Z,100079.44
2022-08-29T05:28:59.117Z,100071.00
2022-08-29T05:31:25.972Z,100081.91
2022-08-29T05:33:52.472Z,100069.53
2022-08-29T05:36:18.912Z,100070.16
2022-08-29T05:38:45.285Z,100068.50
2022-08-29T05:41:11.720Z,100070.94
2022-08-29T05:43:38.167Z,100067.09
2022-08-29T05:46:06.918Z,100083.69
2022-08-29T05:48:34.423Z,100073.09
2022-08-29T05:51:00.962Z,100077.09
2022-08-29T05:53:27.967Z,100087.88
2022-08-29T05:55:54.621Z,100078.03
2022-08-29T05:58:21.244Z,100075.19
2022-08-29T06:00:48.777Z,100076.91
2022-08-29T06:03:15.844Z,100081.16
2022-08-29T06:05:42.572Z,100086.19
2022-08-29T06:08:09.154Z,100076.56
2022-08-29T06:10:40.886Z,100072.41
2022-08-29T06:13:07.284Z,100075.94
2022-08-29T06:15:33.792Z,100075.59
2022-08-29T06:18:00.313Z,100073.34
2022-08-29T06:20:26.755Z,100075.19
2022-08-29T06:22:53.177Z,100076.06
2022-08-29T06:25:38.462Z,100073.72
2022-08-29T06:28:06.024Z,100078.78
2022-08-29T06:30:33.682Z,100079.06
2022-08-29T06:33:01.414Z,100084.69
2022-08-29T06:35:28.012Z,100087.78
2022-08-29T06:37:54.415Z,100094.38
2022-08-29T06:40:20.988Z,100097.00
2022-08-29T06:42:47.529Z,100088.88
2022-08-29T06:45:13.977Z,100092.63
2022-08-29T06:47:40.361Z,100092.41
2022-08-29T06:50:07.281Z,100103.00
2022-08-29T06:52:33.815Z,100097.91
2022-08-29T06:55:02.696Z,100096.44
2022-08-29T06:57:29.105Z,100103.09
2022-08-29T06:59:55.563Z,100107.66
2022-08-29T07:02:22.097Z,100095.84
2022-08-29T07:04:48.606Z,100097.47
2022-08-29T07:07:14.997Z,100097.47
2022-08-29T07:09:41.478Z,100096.72
2022-08-29T07:12:07.886Z,100104.03
2022-08-29T07:14:34.272Z,100105.22
2022-08-29T07:17:00.754Z,100100.63
2022-08-29T07:19:27.661Z,100101.38
2022-08-29T07:21:54.296Z,100103.81
2022-08-29T07:24:25.073Z,100108.56
2022-08-29T07:26:51.654Z,100103.47
2022-08-29T07:29:20.616Z,100108.34
2022-08-29T07:31:47.533Z,100100.03
2022-08-29T07:34:14.527Z,100104.44
2022-08-29T07:36:41.134Z,100096.25
2022-08-29T07:39:10.842Z,100095.00
2022-08-29T07:41:39.267Z,100096.06
2022-08-29T07:44:06.428Z,100102.53
2022-08-29T07:46:32.850Z,100095.84
2022-08-29T07:49:00.313Z,100089.88
2022-08-29T07:51:27.710Z,100091.03
2022-08-29T07:53:55.095Z,100100.56
2022-08-29T07:56:25.043Z,100092.25
2022-08-29T07:58:52.111Z,100089.38
2022-08-29T08:01:21.074Z,100083.47
2022-08-29T08:03:50.753Z,100099.06
2022-08-29T08:06:19.741Z,100094.75
2022-08-29T08:08:47.106Z,100084.91
2022-08-29T08:11:14.670Z,100092.28
2022-08-29T08:13:41.285Z,100087.97
2022-08-29T08:16:11.231Z,100094.03
2022-08-29T08:18:38.856Z,100099.03
2022-08-29T08:21:05.733Z,100091.41
2022-08-29T08:23:32.535Z,100090.81
2022-08-29T08:25:59.460Z,100091.63
2022-08-29T08:28:28.058Z,100086.13
2022-08-29T08:30:55.114Z,100086.13
2022-08-29T08:33:21.604Z,100090.34
2022-08-29T08:35:48.039Z,100085.00
2022-08-29T08:38:16.804Z,100083.69
2022-08-29T08:40:56.925Z,100083.88
2022-08-29T08:43:28.356Z,100085.06
2022-08-29T08:45:56.547Z,100094.81
2022-08-29T08:48:25.935Z,100084.94
2022-08-29T08:51:22.657Z,100091.66
2022-08-29T08:53:54.433Z,100090.28
2022-08-29T08:56:37.464Z,100083.25
2022-08-29T08:59:20.966Z,100086.09
2022-08-29T09:01:53.735Z,100088.78
2022-08-29T09:04:32.369Z,100088.59
2022-08-29T09:07:04.489Z,100084.88
2022-08-29T09:09:44.304Z,100086.91
2022-08-29T09:12:37.814Z,100080.03
2022-08-29T09:15:17.735Z,100076.19
2022-08-29T09:17:56.011Z,100087.56
2022-08-29T09:20:29.058Z,100083.03
2022-08-29T09:23:18.465Z,100077.97
2022-08-29T09:25:45.549Z,100081.13
2022-08-29T09:28:12.102Z,100088.47
2022-08-29T09:30:42.808Z,100090.28
2022-08-29T09:33:13.246Z,100083.88
2022-08-29T09:35:48.819Z,100084.75
2022-08-29T09:38:18.340Z,100077.06
2022-08-29T09:40:58.345Z,100091.09
2022-08-29T09:43:26.748Z,100082.31
2022-08-29T09:46:05.417Z,100081.72
2022-08-29T09:48:35.535Z,100089.59
2022-08-29T09:51:15.083Z,100077.88
2022-08-29T09:53:42.816Z,100078.25
2022-08-29T09:56:17.227Z,100078.28
2022-08-29T09:58:43.837Z,100086.25
2022-08-29T10:01:29.636Z,100087.13
2022-08-29T10:04:00.093Z,100079.81
2022-08-29T10:06:29.969Z,100081.53
2022-08-29T10:09:25.578Z,100080.78
2022-08-29T10:12:28.332Z,100079.94
2022-08-29T10:15:00.152Z,100084.97
2022-08-29T10:17:57.576Z,100067.00
2022-08-29T10:20:35.450Z,100065.47
2022-08-29T10:23:18.645Z,100058.31
2022-08-29T10:25:45.366Z,100061.56
2022-08-29T10:28:25.345Z,100063.09
2022-08-29T10:31:02.614Z,100060.06
2022-08-29T10:34:12.782Z,100049.84
2022-08-29T10:36:40.905Z,100055.72
2022-08-29T10:39:23.549Z,100055.44
2022-08-29T10:42:04.489Z,100056.38
2022-08-29T10:45:09.647Z,100053.31
2022-08-29T10:47:47.570Z,100044.09
2022-08-29T10:50:43.007Z,100045.84
2022-08-29T10:53:34.679Z,100045.06
2022-08-29T10:56:14.132Z,100035.53
2022-08-29T10:58:58.007Z,100034.16
2022-08-29T11:01:38.997Z,100026.06
2022-08-29T11:04:22.450Z,100020.47
2022-08-29T11:06:54.677Z,100022.97
2022-08-29T11:09:27.979Z,100023.88
2022-08-29T11:12:19.659Z,100020.53
2022-08-29T11:15:14.145Z,100015.78
2022-08-29T11:17:44.312Z,100021.19
2022-08-29T11:20:20.409Z,100017.44
2022-08-29T11:22:52.564Z,100013.91
2022-08-29T11:25:20.788Z,100001.00
2022-08-29T11:28:17.092Z,100008.50
2022-08-29T11:30:48.439Z,100004.53
2022-08-29T11:33:20.961Z,100001.66
2022-08-29T11:36:17.214Z,99998.53
2022-08-29T11:38:55.021Z,99997.91
2022-08-29T11:41:35.184Z,99996.41
2022-08-29T11:44:19.358Z,99987.50
2022-08-29T11:46:53.275Z,100000.81
2022-08-29T11:49:36.929Z,99994.97
2022-08-29T11:52:10.802Z,99990.88
2022-08-29T11:54:37.347Z,99992.94
2022-08-29T11:57:04.054Z,99987.53
2022-08-29T11:59:48.742Z,99991.91
2022-08-29T12:02:27.493Z,99987.53
2022-08-29T12:05:01.020Z,99975.88
2022-08-29T12:07:48.851Z,99971.91
2022-08-29T12:10:24.282Z,99969.38
2022-08-29T12:12:56.451Z,99961.28
2022-08-29T12:15:38.230Z,99970.41
2022-08-29T12:18:13.986Z,99960.84
2022-08-29T12:20:52.472Z,99957.53
2022-08-29T12:23:36.209Z,99960.41
2022-08-29T12:26:42.726Z,99948.75
2022-08-29T12:29:44.588Z,99948.31
2022-08-29T12:32:40.094Z,99946.66
2022-08-29T12:35:29.402Z,99948.28
2022-08-29T12:38:05.346Z,99939.94
2022-08-29T12:40:50.352Z,99945.00
2022-08-29T12:43:35.241Z,99937.88
2022-08-29T12:46:23.213Z,99938.69
2022-08-29T12:48:57.321Z,99929.34
2022-08-29T12:51:32.836Z,99926.41
2022-08-29T12:53:59.312Z,99911.22
2022-08-29T12:56:26.123Z,99913.25
2022-08-29T12:58:52.464Z,99913.50
2022-08-29T13:01:30.695Z,99900.19
2022-08-29T13:04:15.817Z,99895.59
2022-08-29T13:07:01.200Z,99898.69
2022-08-29T13:09:37.655Z,99899.06
2022-08-29T13:12:17.974Z,99906.59
2022-08-29T13:14:52.034Z,99889.53
2022-08-29T13:17:22.542Z,99896.16
2022-08-29T13:20:26.640Z,99903.59
2022-08-29T13:23:09.622Z,99895.97
2022-08-29T13:26:02.349Z,99884.13
2022-08-29T13:28:48.782Z,99887.88
2022-08-29T13:31:15.176Z,99891.00
2022-08-29T13:33:56.625Z,99884.38
2022-08-29T13:36:37.401Z,99887.94
2022-08-29T13:39:25.269Z,99893.97
2022-08-29T13:41:57.341Z,99902.16
2022-08-29T13:44:33.188Z,99884.66
2022-08-29T13:47:01.737Z,99886.53
2022-08-29T13:49:34.001Z,99880.50
2022-08-29T13:52:00.756Z,99881.34
2022-08-29T13:54:33.057Z,99887.59
2022-08-29T13:57:03.252Z,99875.56
2022-08-29T13:59:36.033Z,99871.41
2022-08-29T14:02:11.066Z,99876.03
2022-08-29T14:04:40.333Z,99866.88
2022-08-29T14:07:11.407Z,99875.41
2022-08-29T14:09:41.653Z,99887.22
2022-08-29T14:12:09.625Z,99871.03
2022-08-29T14:14:36.363Z,99878.50
2022-08-29T14:17:02.835Z,99866.88
2022-08-29T14:19:29.482Z,99871.25
2022-08-29T14:21:59.025Z,99870.41
2022-08-29T14:24:28.948Z,99857.53
2022-08-29T14:27:01.165Z,99872.31
2022-08-29T14:29:32.171Z,99871.91
2022-08-29T14:31:59.635Z,99860.22
2022-08-29T14:34:30.745Z,99860.47
2022-08-29T14:36:59.229Z,99854.00
2022-08-29T14:39:26.390Z,99853.75
2022-08-29T14:41:53.817Z,99857.94
2022-08-29T14:44:21.795Z,99851.47
2022-08-29T14:46:48.644Z,99853.56
2022-08-29T14:49:15.252Z,99851.03
2022-08-29T14:51:42.005Z,99853.13
2022-08-29T14:54:08.477Z,99848.78
2022-08-29T14:56:47.978Z,99840.69
2022-08-29T14:59:15.760Z,99836.72
2022-08-29T15:01:42.332Z,99839.00
2022-08-29T15:04:09.008Z,99838.16
2022-08-29T15:06:37.587Z,99835.69
2022-08-29T15:09:04.277Z,99837.34
2022-08-29T15:11:31.286Z,99841.91
2022-08-29T15:14:03.509Z,99840.25
2022-08-29T15:16:31.795Z,99837.13
2022-08-29T15:21:44.789Z,99824.25
2022-08-29T15:24:11.197Z,99825.91
2022-08-29T15:26:37.748Z,99824.47
2022-08-29T15:29:04.158Z,99823.84
2022-08-29T15:31:30.775Z,99818.22
2022-08-29T15:33:57.741Z,99818.63
2022-08-29T15:36:24.181Z,99825.06
2022-08-29T15:38:50.595Z,99817.56
2022-08-29T15:41:17.062Z,99815.91
2022-08-29T15:43:43.506Z,99813.19
2022-08-29T15:46:09.951Z,99811.53
2022-08-29T15:48:37.343Z,99818.59
2022-08-29T15:51:03.988Z,99810.72
2022-08-29T15:53:30.430Z,99800.31
2022-08-29T15:55:56.891Z,99804.44
2022-08-29T15:58:23.328Z,99805.31
2022-08-29T16:00:49.732Z,99805.31
2022-08-29T16:03:16.546Z,99803.63
2022-08-29T16:05:43.679Z,99809.84
2022-08-29T16:08:10.954Z,99812.53
2022-08-29T16:10:43.405Z,99806.56
2022-08-29T16:13:09.961Z,99806.09
2022-08-29T16:15:36.965Z,99798.63
2022-08-29T16:18:04.164Z,99796.13
2022-08-29T16:20:31.527Z,99799.03
2022-08-29T16:22:59.456Z,99795.91
2022-08-29T16:25:26.834Z,99791.53
2022-08-29T16:27:53.340Z,99787.00
2022-08-29T16:30:20.888Z,99784.28
2022-08-29T16:32:49.444Z,99783.66
2022-08-29T16:35:16.738Z,99781.19
2022-08-29T16:37:44.804Z,99784.06
2022-08-29T16:40:14.886Z,99777.63
2022-08-29T16:42:42.104Z,99784.66
2022-08-29T16:45:22.069Z,99783.19
2022-08-29T16:47:48.471Z,99785.69
2022-08-29T16:50:14.865Z,99790.66
2022-08-29T16:52:41.264Z,99773.63
2022-08-29T16:55:08.358Z,99781.94
2022-08-29T16:57:35.246Z,99785.47
2022-08-29T17:00:02.533Z,99775.06
2022-08-29T17:02:29.096Z,99783.16
2022-08-29T17:04:55.598Z,99785.88
2022-08-29T17:07:32.293Z,99775.47
2022-08-29T17:09:59.828Z,99776.72
2022-08-29T17:12:26.223Z,99762.78
2022-08-29T17:14:54.992Z,99767.38
2022-08-29T17:17:21.527Z,99763.59
2022-08-29T17:19:48.080Z,99771.50
2022-08-29T17:22:18.019Z,99750.31
2022-08-29T17:24:46.329Z,99767.72
2022-08-29T17:27:16.221Z,99769.78
2022-08-29T17:29:47.162Z,99767.53
2022-08-29T17:32:14.429Z,99776.66
2022-08-29T17:34:42.467Z,99788.03
2022-08-29T17:37:10.230Z,99788.38
2022-08-29T17:39:40.002Z,99788.78
2022-08-29T17:42:06.962Z,99787.94
2022-08-29T17:44:34.633Z,99788.31
2022-08-29T17:47:01.150Z,99796.00
2022-08-29T17:49:28.325Z,99801.16
2022-08-29T17:51:55.308Z,99789.34
2022-08-29T17:54:23.612Z,99784.47
2022-08-29T17:56:53.736Z,99800.91
2022-08-29T17:59:22.700Z,99795.25
2022-08-29T18:01:49.672Z,99793.97
2022-08-29T18:04:17.733Z,99788.75
2022-08-29T18:06:44.855Z,99790.56
2022-08-29T18:09:11.502Z,99793.19
2022-08-29T18:11:44.045Z,99792.19
2022-08-29T18:14:11.829Z,99790.03
2022-08-29T18:16:38.516Z,99799.13
2022-08-29T18:19:06.388Z,99797.19
2022-08-29T18:21:33.576Z,99791.47
2022-08-29T18:23:59.997Z,99805.75
2022-08-29T18:26:27.635Z,99805.31
2022-08-29T18:28:55.369Z,99805.25
2022-08-29T18:31:21.946Z,99811.22
2022-08-29T18:34:03.903Z,99814.66
2022-08-29T18:36:32.421Z,99814.38
2022-08-29T18:38:59.230Z,99809.38
2022-08-29T18:41:26.302Z,99816.44
2022-08-29T18:43:53.194Z,99806.50
2022-08-29T18:46:19.840Z,99816.97
2022-08-29T18:48:46.778Z,99823.19
2022-08-29T18:51:14.628Z,99826.88
2022-08-29T18:53:41.201Z,99830.44
2022-08-29T18:56:07.772Z,99830.72
2022-08-29T18:58:35.863Z,99829.06
2022-08-29T19:01:16.920Z,99829.88
2022-08-29T19:03:53.821Z,99836.03
2022-08-29T19:06:22.635Z,99841.16
2022-08-29T19:08:49.037Z,99838.00
2022-08-29T19:11:15.490Z,99842.81
2022-08-29T19:13:41.889Z,99839.97
2022-08-29T19:16:09.792Z,99847.84
2022-08-29T19:18:36.850Z,99852.19
2022-08-29T19:21:07.301Z,99844.50
2022-08-29T19:23:36.856Z,99854.06
2022-08-29T19:26:07.625Z,99862.72
2022-08-29T19:28:34.577Z,99858.91
2022-08-29T19:31:02.216Z,99859.59
2022-08-29T19:33:28.653Z,99858.75
2022-08-29T19:35:55.188Z,99861.63
2022-08-29T19:38:22.770Z,99859.00
2022-08-29T19:40:55.269Z,99870.63
2022-08-29T19:43:25.192Z,99876.03
2022-08-29T19:45:51.753Z,99872.13
2022-08-29T19:48:18.409Z,99875.31
2022-08-29T19:50:47.844Z,99879.56
2022-08-29T19:53:24.685Z,99877.59
2022-08-29T19:55:53.385Z,99872.78
2022-08-29T19:58:19.880Z,99873.16
2022-08-29T20:00:46.377Z,99874.56
2022-08-29T20:03:13.241Z,99868.72
2022-08-29T20:05:40.034Z,99871.00
2022-08-29T20:08:06.423Z,99863.34
2022-08-29T20:10:34.826Z,99859.81
2022-08-29T20:13:01.238Z,99873.13
2022-08-29T20:15:30.549Z,99871.19
2022-08-29T20:17:59.053Z,99877.09
2022-08-29T20:20:29.584Z,99881.09
2022-08-29T20:22:56.657Z,99885.47
2022-08-29T20:25:23.809Z,99888.69
2022-08-29T20:27:50.804Z,99884.75
2022-08-29T20:30:23.003Z,99885.66
2022-08-29T20:32:50.474Z,99886.13
2022-08-29T20:35:37.384Z,99879.09
2022-08-29T20:38:03.906Z,99890.22
2022-08-29T20:40:30.520Z,99893.63
2022-08-29T20:42:57.503Z,99892.41
2022-08-29T20:45:24.496Z,99894.16
2022-08-29T20:47:50.925Z,99898.00
2022-08-29T20:50:17.341Z,99906.81
2022-08-29T20:52:43.793Z,99904.19
2022-08-29T20:55:11.399Z,99904.75
2022-08-29T20:57:39.290Z,99905.28
2022-08-29T21:00:06.514Z,99917.06
2022-08-29T21:02:51.199Z,99913.69
2022-08-29T21:05:35.998Z,99909.41
2022-08-29T21:08:02.622Z,99904.38
2022-08-29T21:10:30.113Z,99920.13
2022-08-29T21:12:56.493Z,99918.78
2022-08-29T21:15:22.869Z,99910.59
2022-08-29T21:17:49.260Z,99919.13
2022-08-29T21:20:15.691Z,99927.16
2022-08-29T21:22:42.094Z,99922.47
2022-08-29T21:25:08.682Z,99926.19
2022-08-29T21:27:35.120Z,99923.84
2022-08-29T21:30:01.604Z,99914.97
2022-08-29T21:32:27.996Z,99920.00
2022-08-29T21:34:54.402Z,99917.66
2022-08-29T21:37:20.835Z,99922.66
2022-08-29T21:39:47.851Z,99928.69
2022-08-29T21:42:14.684Z,99937.56
2022-08-29T21:44:42.004Z,99928.88
2022-08-29T21:47:08.553Z,99922.84
2022-08-29T21:49:34.970Z,99930.03
2022-08-29T21:52:01.432Z,99920.84
2022-08-29T21:54:27.965Z,99930.19
2022-08-29T21:56:54.397Z,99923.00
2022-08-29T21:59:21.769Z,99927.84
2022-08-29T22:01:52.537Z,99925.78
2022-08-29T22:04:28.604Z,99930.34
2022-08-29T22:06:56.936Z,99934.00
2022-08-29T22:09:23.565Z,99930.13
2022-08-29T22:11:49.978Z,99931.00
2022-08-29T22:14:16.358Z,99928.91
2022-08-29T22:16:42.912Z,99932.81
2022-08-29T22:19:13.886Z,99935.13
2022-08-29T22:21:43.704Z,99933.13
2022-08-29T22:24:11.290Z,99932.50
2022-08-29T22:26:39.518Z,99923.44
2022-08-29T22:29:07.911Z,99919.91
2022-08-29T22:31:38.364Z,99920.56
2022-08-29T22:34:05.347Z,99921.75
2022-08-29T22:36:33.693Z,99933.81
2022-08-29T22:39:00.143Z,99932.44
2022-08-29T22:41:26.553Z,99929.28
2022-08-29T22:44:31.653Z,99932.94
2022-08-29T22:46:43.453Z,99931.78
2022-08-29T22:49:10.055Z,99939.22
2022-08-29T22:51:36.478Z,99934.06
2022-08-29T22:54:21.774Z,99930.88
2022-08-29T22:56:48.235Z,99926.66
2022-08-29T22:59:14.686Z,99924.97
2022-08-29T23:01:43.732Z,99928.34
2022-08-29T23:04:11.158Z,99929.81
2022-08-29T23:06:37.532Z,99920.34
2022-08-29T23:09:04.999Z,99924.56
2022-08-29T23:11:31.428Z,99923.22
2022-08-29T23:13:57.937Z,99923.81
2022-08-29T23:16:24.514Z,99925.84
2022-08-29T23:18:51.295Z,99931.28
2022-08-29T23:21:18.692Z,99931.13
2022-08-29T23:23:45.154Z,99940.13
2022-08-29T23:26:11.902Z,99938.56
2022-08-29T23:28:38.312Z,99938.84
2022-08-29T23:31:04.961Z,99937.22
2022-08-29T23:33:31.528Z,99940.22
2022-08-29T23:35:58.089Z,99946.38
2022-08-29T23:38:24.590Z,99941.66
2022-08-29T23:40:51.213Z,99937.06
2022-08-29T23:43:18.933Z,99937.06
2022-08-29T23:45:45.313Z,99943.06
2022-08-29T23:48:11.702Z,99940.53
2022-08-29T23:50:38.184Z,99947.63
2022-08-29T23:53:04.893Z,99944.88
2022-08-29T23:55:31.281Z,99925.31
2022-08-29T23:57:57.708Z,99931.59
